Time;durP1;ratioP1;P1;durP2;ratioP2;P2;SDS_P1;SDS_P2;PMS_P1;PMS_P2;Temp;Humidity;BMP_temperature;BMP_pressure;BME280_temperature;BME280_humidity;BME280_pressure;Samples;Min_cycle;Max_cycle;Signal;HPM_P1;HPM_P2
2022/10/06 00:01:11;;;;;;;12.63;9.53;;;;;;;12.60;81.23;100670.53;5132619;27;20206;-61
2022/10/06 00:03:42;;;;;;;14.93;9.53;;;;;;;12.58;81.46;100674.06;5132793;27;20285;-61
2022/10/06 00:06:11;;;;;;;17.57;10.80;;;;;;;12.59;81.88;100670.56;5132226;27;20225;-62
2022/10/06 00:08:40;;;;;;;20.00;12.70;;;;;;;12.58;81.94;100663.63;5132487;27;20280;-61
2022/10/06 00:11:08;;;;;;;20.90;12.83;;;;;;;12.45;81.96;100649.13;5132321;27;20198;-61
2022/10/06 00:13:37;;;;;;;16.97;12.27;;;;;;;12.45;82.08;100662.13;5132496;27;20194;-61
2022/10/06 00:16:09;;;;;;;15.93;9.13;;;;;;;12.43;82.04;100669.13;5131144;27;20216;-61
2022/10/06 00:18:36;;;;;;;17.57;9.47;;;;;;;12.35;82.44;100657.09;5132405;27;20204;-62
2022/10/06 00:21:03;;;;;;;11.13;8.10;;;;;;;12.24;83.64;100664.25;5132342;27;20276;-62
2022/10/06 00:23:30;;;;;;;9.67;7.57;;;;;;;12.10;85.06;100645.38;5132389;27;20247;-62
2022/10/06 00:25:57;;;;;;;9.97;7.50;;;;;;;12.06;86.11;100645.50;5132331;27;20220;-62
2022/10/06 00:28:24;;;;;;;7.33;6.53;;;;;;;12.00;87.13;100643.81;5132012;27;20312;-63
2022/10/06 00:30:55;;;;;;;7.90;6.53;;;;;;;11.97;87.87;100660.34;5132169;27;20197;-62
2022/10/06 00:33:22;;;;;;;7.70;6.03;;;;;;;11.88;88.75;100649.22;5131989;27;20193;-61
2022/10/06 00:35:56;;;;;;;7.57;6.10;;;;;;;11.80;89.25;100651.97;5132230;27;20697;-54
2022/10/06 00:38:24;;;;;;;10.40;5.53;;;;;;;11.73;89.59;100644.25;5131929;27;20259;-54
2022/10/06 00:40:51;;;;;;;6.63;5.63;;;;;;;11.56;90.41;100649.69;5131854;27;20200;-54
2022/10/06 00:43:43;;;;;;;13.70;5.47;;;;;;;11.51;91.39;100644.53;5132012;27;20190;-53
2022/10/06 00:46:15;;;;;;;6.13;5.53;;;;;;;11.40;92.08;100646.44;5131806;27;20263;-54
2022/10/06 00:48:44;;;;;;;5.63;5.13;;;;;;;11.34;92.09;100646.53;5131950;27;20221;-53
2022/10/06 00:51:11;;;;;;;5.90;5.40;;;;;;;11.26;92.41;100646.66;5131665;27;20221;-53
2022/10/06 00:53:37;;;;;;;5.80;5.30;;;;;;;11.14;94.16;100656.34;5131628;27;20281;-54
2022/10/06 00:56:04;;;;;;;6.50;5.90;;;;;;;11.07;95.31;100652.09;5131804;27;20272;-53
2022/10/06 00:58:31;;;;;;;5.60;5.07;;;;;;;10.99;95.91;100648.75;5131632;27;20672;-54
2022/10/06 01:00:59;;;;;;;5.97;5.27;;;;;;;10.95;96.24;100639.28;5131465;27;20212;-54
2022/10/06 01:03:31;;;;;;;6.83;5.40;;;;;;;10.90;96.61;100642.78;5131592;27;20549;-54
2022/10/06 01:06:00;;;;;;;9.70;5.70;;;;;;;10.87;96.52;100640.22;5131420;27;20309;-54
2022/10/06 01:08:29;;;;;;;8.50;5.03;;;;;;;10.79;97.15;100641.19;5130976;27;20222;-55
2022/10/06 01:10:55;;;;;;;5.93;5.33;;;;;;;10.69;97.01;100640.44;5131569;27;20696;-61
2022/10/06 01:13:23;;;;;;;9.37;5.50;;;;;;;10.72;96.97;100645.59;5131341;27;20216;-61
2022/10/06 01:15:55;;;;;;;6.30;5.17;;;;;;;10.67;97.24;100650.00;5131437;27;20624;-61
2022/10/06 01:18:25;;;;;;;6.70;5.03;;;;;;;10.54;98.06;100635.41;5131067;27;20219;-64
2022/10/06 01:20:59;;;;;;;7.87;5.73;;;;;;;10.54;98.31;100651.00;5131377;27;20556;-62
2022/10/06 01:23:30;;;;;;;5.23;4.67;;;;;;;10.47;98.45;100652.81;5131151;27;20199;-54
2022/10/06 01:25:58;;;;;;;5.50;4.93;;;;;;;10.48;97.91;100648.47;5131038;27;20232;-54
2022/10/06 01:28:26;;;;;;;5.97;4.73;;;;;;;10.44;98.66;100645.03;5130980;27;20319;-54
2022/10/06 01:30:55;;;;;;;8.10;4.87;;;;;;;10.38;99.24;100649.44;5130897;27;20194;-55
2022/10/06 01:33:22;;;;;;;6.33;4.70;;;;;;;10.37;99.24;100645.13;5130846;27;20234;-54
2022/10/06 01:35:51;;;;;;;4.73;4.33;;;;;;;10.36;99.26;100636.47;5131416;27;20615;-54
2022/10/06 01:38:18;;;;;;;5.03;4.53;;;;;;;10.33;99.24;100646.88;5130937;27;20285;-61
2022/10/06 01:40:48;;;;;;;5.90;4.77;;;;;;;10.29;100.00;100647.78;5130808;27;20194;-53
2022/10/06 01:43:15;;;;;;;5.67;4.63;;;;;;;10.22;100.00;100642.66;5130716;27;20211;-54
2022/10/06 01:45:41;;;;;;;4.87;4.43;;;;;;;10.18;100.00;100642.69;5131156;27;20505;-54
2022/10/06 01:48:09;;;;;;;5.17;4.67;;;;;;;10.15;100.00;100647.91;5130797;27;20193;-54
2022/10/06 01:50:35;;;;;;;6.17;4.93;;;;;;;10.06;100.00;100647.94;5130848;27;20208;-62
2022/10/06 01:53:02;;;;;;;6.47;5.13;;;;;;;10.03;100.00;100639.34;5130488;27;20288;-62
2022/10/06 01:55:29;;;;;;;6.83;4.80;;;;;;;10.02;100.00;100641.09;5131083;27;20660;-62
2022/10/06 01:57:58;;;;;;;5.97;4.93;;;;;;;10.04;100.00;100644.53;5130380;27;20194;-54
2022/10/06 02:00:24;;;;;;;5.63;5.13;;;;;;;10.02;100.00;100640.22;5130443;27;20198;-54
2022/10/06 02:02:51;;;;;;;6.03;5.37;;;;;;;10.06;100.00;100642.75;5130635;27;20200;-62
2022/10/06 02:05:18;;;;;;;5.67;5.10;;;;;;;10.04;100.00;100634.16;5130723;27;20695;-62
2022/10/06 02:07:45;;;;;;;5.57;4.97;;;;;;;9.97;100.00;100631.59;5130395;27;20222;-62
2022/10/06 02:10:12;;;;;;;5.53;4.40;;;;;;;9.94;100.00;100627.31;5130225;27;20661;-54
2022/10/06 02:12:39;;;;;;;6.30;4.40;;;;;;;10.02;100.00;100628.13;5130340;27;20194;-53
2022/10/06 02:15:10;;;;;;;4.50;4.17;;;;;;;10.02;100.00;100622.94;5130378;27;20301;-53
2022/10/06 02:17:37;;;;;;;5.53;4.27;;;;;;;10.07;100.00;100634.09;5130357;27;20586;-54
2022/10/06 02:20:04;;;;;;;6.50;5.07;;;;;;;10.03;100.00;100631.56;5130184;27;20201;-54
2022/10/06 02:22:31;;;;;;;5.00;4.47;;;;;;;10.03;100.00;100637.63;5130728;27;20198;-54
2022/10/06 02:24:58;;;;;;;4.57;4.13;;;;;;;10.01;100.00;100641.97;5130195;28;20189;-55
2022/10/06 02:27:25;;;;;;;6.27;4.43;;;;;;;10.03;100.00;100642.81;5129986;28;20225;-54
2022/10/06 02:29:52;;;;;;;4.13;3.60;;;;;;;10.03;100.00;100644.53;5130321;28;20265;-54
2022/10/06 02:32:20;;;;;;;5.87;4.53;;;;;;;10.00;100.00;100635.03;5130111;28;20194;-54
2022/10/06 02:34:47;;;;;;;7.33;4.33;;;;;;;9.82;100.00;100611.84;5130246;28;20194;-54
2022/10/06 02:37:15;;;;;;;4.00;3.70;;;;;;;9.96;100.00;100635.94;5130217;28;20684;-61
2022/10/06 02:39:42;;;;;;;5.57;4.13;;;;;;;9.95;100.00;100642.00;5130008;28;20189;-62
2022/10/06 02:42:10;;;;;;;4.83;4.27;;;;;;;9.91;100.00;100636.88;5129920;28;20202;-62
2022/10/06 02:44:36;;;;;;;7.57;4.43;;;;;;;9.98;100.00;100641.97;5130275;28;20706;-54
2022/10/06 02:47:03;;;;;;;3.93;3.63;;;;;;;9.90;100.00;100632.53;5129611;28;20621;-54
2022/10/06 02:49:32;;;;;;;5.37;4.00;;;;;;;9.98;100.00;100639.38;5129964;28;20202;-54
2022/10/06 02:51:58;;;;;;;4.43;4.13;;;;;;;10.01;100.00;100634.19;5130236;28;20208;-62
2022/10/06 02:54:25;;;;;;;5.10;4.20;;;;;;;10.06;100.00;100645.34;5130012;28;20194;-62
2022/10/06 02:56:52;;;;;;;7.77;4.13;;;;;;;10.05;100.00;100640.19;5129960;28;20290;-62
2022/10/06 02:59:19;;;;;;;4.13;3.83;;;;;;;9.99;100.00;100641.09;5129835;28;20194;-61
2022/10/06 03:01:46;;;;;;;5.50;3.87;;;;;;;9.93;100.00;100642.91;5130058;28;20198;-61
2022/10/06 03:04:13;;;;;;;6.17;4.50;;;;;;;9.93;100.00;100646.31;5129716;28;20612;-61
2022/10/06 03:06:42;;;;;;;4.33;3.97;;;;;;;9.94;100.00;100642.00;5129833;28;20372;-61
2022/10/06 03:09:10;;;;;;;5.00;4.50;;;;;;;9.91;100.00;100635.13;5129878;28;20206;-62
2022/10/06 03:11:39;;;;;;;5.93;4.30;;;;;;;9.96;100.00;100640.25;5128971;28;20284;-61
2022/10/06 03:14:06;;;;;;;4.77;4.17;;;;;;;9.94;100.00;100637.69;5128161;28;20197;-55
2022/10/06 03:16:37;;;;;;;4.90;4.47;;;;;;;9.95;100.00;100629.03;5128244;28;20190;-54
2022/10/06 03:19:05;;;;;;;4.70;4.40;;;;;;;9.96;100.00;100624.69;5128201;28;20202;-54
2022/10/06 03:21:34;;;;;;;6.97;4.07;;;;;;;10.09;100.00;100640.16;5128653;28;20236;-54
2022/10/06 03:24:03;;;;;;;12.03;4.80;;;;;;;9.95;100.00;100616.06;5129797;28;20421;-54
2022/10/06 03:26:31;;;;;;;7.03;4.20;;;;;;;10.06;100.00;100636.72;5129634;28;20214;-53
2022/10/06 03:28:59;;;;;;;4.93;4.27;;;;;;;10.10;100.00;100639.28;5129647;28;20280;-53
2022/10/06 03:31:26;;;;;;;7.33;4.23;;;;;;;10.14;100.00;100630.59;5131828;27;20669;-53
2022/10/06 03:33:55;;;;;;;6.30;4.30;;;;;;;10.16;100.00;100626.22;5133152;27;20293;-54
2022/10/06 03:36:24;;;;;;;5.10;4.07;;;;;;;10.17;100.00;100635.75;5133110;27;20205;-53
2022/10/06 03:38:51;;;;;;;5.17;3.83;;;;;;;10.15;100.00;100627.13;5133093;27;20225;-53
2022/10/06 03:41:22;;;;;;;4.43;4.03;;;;;;;10.17;100.00;100630.56;5133031;27;20200;-54
2022/10/06 03:43:50;;;;;;;5.40;4.20;;;;;;;10.12;100.00;100626.28;5133091;27;20194;-53
2022/10/06 03:46:19;;;;;;;7.13;4.60;;;;;;;10.12;100.00;100619.38;5129676;27;20817;-52
2022/10/06 03:48:47;;;;;;;4.10;3.70;;;;;;;10.09;100.00;100626.31;5129794;27;20582;-52
2022/10/06 03:51:15;;;;;;;8.30;5.30;;;;;;;9.96;100.00;100629.88;5129406;27;20559;-52
2022/10/06 03:53:45;;;;;;;4.37;4.03;;;;;;;9.88;100.00;100617.00;5131724;27;20282;-52
2022/10/06 03:56:13;;;;;;;4.17;3.77;;;;;;;9.97;100.00;100626.41;5132633;27;20276;-53
2022/10/06 03:58:44;;;;;;;4.73;4.20;;;;;;;9.88;100.00;100606.63;5132815;27;20602;-51
2022/10/06 04:01:14;;;;;;;4.07;3.77;;;;;;;9.93;100.00;100622.16;5131288;27;20222;-52
2022/10/06 04:03:41;;;;;;;5.17;3.93;;;;;;;9.86;100.00;100610.09;5131834;27;20194;-51
2022/10/06 04:06:12;;;;;;;4.40;4.00;;;;;;;9.95;100.00;100626.44;5129019;27;20201;-53
2022/10/06 04:08:40;;;;;;;5.90;4.00;;;;;;;10.01;100.00;100625.53;5132561;27;20218;-52
2022/10/06 04:11:08;;;;;;;7.60;4.17;;;;;;;9.96;100.00;100611.72;5132633;27;20194;-51
2022/10/06 04:13:35;;;;;;;7.57;3.77;;;;;;;9.84;100.00;100610.09;5132297;27;20316;-52
2022/10/06 04:16:11;;;;;;;4.27;3.90;;;;;;;9.95;100.00;100618.66;5132576;27;20190;-52
2022/10/06 04:18:38;;;;;;;6.60;4.27;;;;;;;10.00;100.00;100622.06;5132659;27;20584;-52
2022/10/06 04:21:06;;;;;;;5.90;4.10;;;;;;;10.09;100.00;100615.94;5132429;27;20198;-52
2022/10/06 04:23:35;;;;;;;4.97;4.47;;;;;;;9.99;99.98;100624.69;5128936;27;20293;-56
2022/10/06 04:26:05;;;;;;;6.53;4.13;;;;;;;9.94;100.00;100616.94;5110820;28;20609;-56
2022/10/06 04:28:32;;;;;;;7.23;4.73;;;;;;;9.94;100.00;100624.72;5117397;27;20241;-66
2022/10/06 04:31:00;;;;;;;10.43;4.87;;;;;;;10.02;100.00;100620.34;5131141;27;20194;-64
2022/10/06 04:33:30;;;;;;;7.70;4.57;;;;;;;10.03;100.00;100621.19;5129454;27;20293;-60
2022/10/06 04:35:58;;;;;;;7.60;4.30;;;;;;;9.89;99.65;100592.78;5132222;27;20205;-61
2022/10/06 04:38:26;;;;;;;6.63;4.90;;;;;;;10.11;99.28;100622.84;5131528;27;20200;-59
2022/10/06 04:40:52;;;;;;;6.47;4.67;;;;;;;10.28;98.08;100629.63;5129981;27;20232;-58
2022/10/06 04:43:19;;;;;;;12.03;5.30;;;;;;;10.25;98.74;100620.16;5128950;27;20194;-59
2022/10/06 04:45:46;;;;;;;6.30;4.60;;;;;;;10.08;98.51;100622.00;5131539;27;20270;-60
2022/10/06 04:48:14;;;;;;;8.73;4.73;;;;;;;10.02;99.00;100624.66;5131603;27;20222;-59
2022/10/06 04:50:42;;;;;;;12.10;4.70;;;;;;;10.04;98.87;100618.59;5132001;27;20216;-59
2022/10/06 04:53:09;;;;;;;4.67;4.27;;;;;;;10.23;98.21;100614.13;5131450;27;20285;-53
2022/10/06 04:55:36;;;;;;;10.30;4.73;;;;;;;10.26;96.73;100621.88;5131990;27;20197;-53
2022/10/06 04:58:03;;;;;;;6.10;4.30;;;;;;;10.34;97.12;100614.00;5131556;27;20198;-54
2022/10/06 05:00:30;;;;;;;8.07;4.63;;;;;;;10.43;95.84;100612.16;5131672;27;20194;-59
2022/10/06 05:02:56;;;;;;;5.20;4.63;;;;;;;10.42;95.24;100605.25;5131131;27;20198;-55
2022/10/06 05:05:23;;;;;;;4.50;4.20;;;;;;;10.49;95.26;100621.63;5129705;27;20196;-54
2022/10/06 05:07:52;;;;;;;7.03;4.50;;;;;;;10.55;95.07;100618.97;5129424;27;20210;-54
2022/10/06 05:10:19;;;;;;;4.57;4.07;;;;;;;10.66;94.25;100619.69;5127334;27;20219;-61
2022/10/06 05:12:45;;;;;;;8.03;4.70;;;;;;;10.79;93.89;100623.88;5130224;27;20664;-61
2022/10/06 05:15:14;;;;;;;5.27;4.57;;;;;;;10.98;91.89;100611.50;5130099;27;20194;-61
2022/10/06 05:17:41;;;;;;;4.87;4.30;;;;;;;11.58;89.23;100625.41;5129902;27;20270;-61
2022/10/06 05:20:09;;;;;;;5.20;4.30;;;;;;;13.04;81.24;100630.56;5129940;27;20213;-62
2022/10/06 05:22:36;;;;;;;4.80;3.90;;;;;;;14.78;70.32;100631.56;5127708;27;20255;-61
2022/10/06 05:25:05;;;;;;;4.20;3.90;;;;;;;16.08;63.85;100638.88;5131132;27;20209;-62
2022/10/06 05:27:32;;;;;;;4.97;4.43;;;;;;;17.09;57.88;100641.44;5130736;27;20213;-60
2022/10/06 05:29:59;;;;;;;6.80;3.70;;;;;;;18.07;54.16;100645.38;5131098;27;20321;-59
2022/10/06 05:32:26;;;;;;;3.40;3.17;;;;;;;19.36;49.72;100640.56;5130154;27;20193;-59
2022/10/06 05:34:53;;;;;;;3.88;3.05;;;;;;;20.46;46.27;100649.22;5129761;27;20273;-59
2022/10/06 05:37:20;;;;;;;3.97;3.33;;;;;;;21.41;43.41;100656.47;5129689;27;20200;-54
2022/10/06 05:39:46;;;;;;;3.88;3.50;;;;;;;21.76;42.01;100650.97;5126826;27;20200;-60
2022/10/06 05:42:15;;;;;;;3.97;3.65;;;;;;;22.99;39.26;100678.06;5130467;27;20204;-59
2022/10/06 05:44:42;;;;;;;5.50;3.95;;;;;;;23.85;37.64;100675.19;5129443;27;20200;-60
2022/10/06 05:47:08;;;;;;;5.07;3.85;;;;;;;24.15;36.34;100674.13;5129732;27;20615;-60
2022/10/06 05:49:35;;;;;;;5.30;3.67;;;;;;;23.38;37.20;100678.22;5129638;27;20662;-60
2022/10/06 05:52:02;;;;;;;7.47;4.18;;;;;;;23.07;38.08;100673.13;5129633;27;20193;-60
2022/10/06 05:54:29;;;;;;;5.00;4.18;;;;;;;23.99;36.98;100678.75;5129165;27;20225;-60
2022/10/06 05:56:56;;;;;;;9.05;4.75;;;;;;;24.72;35.39;100679.94;5129742;27;20194;-60
2022/10/06 05:59:24;;;;;;;7.70;4.40;;;;;;;24.59;35.30;100679.97;5129016;27;20200;-60
2022/10/06 06:01:52;;;;;;;5.97;4.18;;;;;;;24.87;34.51;100672.72;5129030;27;20204;-60
2022/10/06 06:04:19;;;;;;;7.78;3.90;;;;;;;25.06;34.13;100681.13;5129051;27;20674;-53
2022/10/06 06:06:47;;;;;;;9.68;3.85;;;;;;;25.97;32.96;100685.16;5128941;27;20197;-53
2022/10/06 06:09:16;;;;;;;7.70;4.60;;;;;;;26.25;32.05;100685.75;5128990;27;20321;-54
2022/10/06 06:11:45;;;;;;;4.70;3.70;;;;;;;27.02;31.21;100692.25;5126295;27;20204;-54
2022/10/06 06:14:15;;;;;;;10.80;4.07;;;;;;;26.98;30.94;100680.13;5128750;27;20186;-55
2022/10/06 06:16:45;;;;;;;12.15;4.43;;;;;;;27.49;30.65;100693.81;5129516;27;20614;-55
2022/10/06 06:19:14;;;;;;;5.15;4.30;;;;;;;28.43;29.04;100702.06;5129061;27;20263;-54
2022/10/06 06:21:41;;;;;;;8.20;4.20;;;;;;;28.66;28.75;100708.13;5129461;27;20681;-54
2022/10/06 06:24:08;;;;;;;8.18;4.63;;;;;;;28.85;28.88;100704.72;5129139;27;20233;-55
2022/10/06 06:26:36;;;;;;;11.93;4.50;;;;;;;29.44;27.75;100696.84;5129181;28;20285;-55
2022/10/06 06:29:05;;;;;;;6.60;3.97;;;;;;;29.65;27.76;100707.47;5128679;27;20233;-54
2022/10/06 06:31:34;;;;;;;9.95;4.22;;;;;;;30.05;27.09;100710.06;5129717;28;20205;-55
2022/10/06 06:34:05;;;;;;;11.55;4.10;;;;;;;29.39;27.57;100699.06;5128894;28;20616;-54
2022/10/06 06:36:34;;;;;;;8.88;4.45;;;;;;;29.02;28.11;100714.78;5129390;28;20662;-60
2022/10/06 06:39:03;;;;;;;5.78;3.97;;;;;;;29.42;27.97;100709.50;5129684;28;20205;-61
2022/10/06 06:41:32;;;;;;;9.07;4.43;;;;;;;30.04;27.18;100719.09;5129470;28;20194;-54
2022/10/06 06:44:00;;;;;;;10.48;4.63;;;;;;;30.90;26.10;100720.88;5130012;28;20684;-61
2022/10/06 06:46:30;;;;;;;6.60;4.40;;;;;;;31.38;25.13;100683.13;5129547;28;20226;-60
2022/10/06 06:49:03;;;;;;;17.17;4.95;;;;;;;32.19;24.66;100706.53;5130041;28;20276;-56
2022/10/06 06:51:33;;;;;;;9.75;3.72;;;;;;;33.31;23.88;100707.47;5129214;28;20201;-55
2022/10/06 06:54:01;;;;;;;7.35;4.38;;;;;;;33.80;22.77;100708.53;5129118;28;20726;-56
2022/10/06 06:56:33;;;;;;;11.10;4.47;;;;;;;34.52;22.19;100704.22;5128866;28;20200;-54
2022/10/06 06:59:00;;;;;;;7.78;4.05;;;;;;;34.65;22.29;100704.56;5129323;28;20197;-55
2022/10/06 07:01:27;;;;;;;5.38;3.75;;;;;;;34.51;22.02;100702.53;5128346;28;20635;-55
2022/10/06 07:03:57;;;;;;;8.18;3.53;;;;;;;33.46;23.26;100700.47;5128592;28;20273;-54
2022/10/06 07:06:26;;;;;;;8.30;4.30;;;;;;;30.69;25.68;100685.38;5130098;27;20217;-54
2022/10/06 07:08:56;;;;;;;6.15;4.25;;;;;;;27.72;29.15;100686.66;5133384;27;20224;-55
2022/10/06 07:11:25;;;;;;;7.47;4.45;;;;;;;26.08;31.45;100668.38;5133827;27;20197;-54
2022/10/06 07:13:54;;;;;;;5.07;3.97;;;;;;;24.64;34.00;100668.16;5133857;27;20200;-54
2022/10/06 07:27:27;;;;;;;8.85;4.75;;;;;;;20.66;42.30;100630.56;5133327;27;20209;-54
2022/10/06 07:29:55;;;;;;;6.22;4.05;;;;;;;20.09;43.59;100652.88;5133383;27;20890;-54
2022/10/06 07:32:23;;;;;;;5.70;3.88;;;;;;;19.96;43.83;100647.34;5133382;27;20822;-55
2022/10/06 07:34:50;;;;;;;7.10;3.80;;;;;;;19.72;44.48;100640.63;5133454;27;20209;-54
2022/10/06 07:37:18;;;;;;;9.13;4.10;;;;;;;19.61;44.57;100629.78;5133129;27;20190;-54
2022/10/06 07:39:48;;;;;;;6.30;3.50;;;;;;;19.63;44.66;100639.31;5133317;27;20226;-54
2022/10/06 07:42:16;;;;;;;5.38;4.25;;;;;;;19.26;45.24;100612.97;5133069;27;20240;-55
2022/10/06 07:44:43;;;;;;;4.43;4.13;;;;;;;19.31;45.53;100632.03;5132607;27;20197;-54
2022/10/06 07:47:10;;;;;;;4.53;3.92;;;;;;;19.35;45.33;100623.94;5133168;27;20213;-54
2022/10/06 07:49:37;;;;;;;8.75;3.97;;;;;;;19.48;45.33;100630.34;5132907;27;20317;-54
2022/10/06 07:52:04;;;;;;;4.20;3.80;;;;;;;19.54;45.07;100629.19;5133189;27;20194;-54
2022/10/06 07:54:32;;;;;;;4.93;3.40;;;;;;;19.45;45.51;100619.06;5132828;27;20280;-54
2022/10/06 07:57:01;;;;;;;4.53;3.42;;;;;;;19.53;45.52;100611.69;5132990;27;20205;-54
2022/10/06 07:59:28;;;;;;;6.72;3.78;;;;;;;19.82;44.72;100605.00;5132741;27;20234;-54
2022/10/06 08:01:54;;;;;;;8.35;4.35;;;;;;;19.78;44.95;100606.94;5132892;27;20256;-54
2022/10/06 08:04:21;;;;;;;5.90;4.05;;;;;;;19.78;44.80;100600.81;5132546;27;20194;-60
2022/10/06 08:06:49;;;;;;;7.35;3.97;;;;;;;19.71;44.76;100588.88;5132601;27;20200;-60
2022/10/06 08:09:15;;;;;;;9.02;5.63;;;;;;;19.75;44.84;100593.06;5132380;27;20229;-60
2022/10/06 08:11:43;;;;;;;5.40;4.03;;;;;;;19.75;44.95;100599.16;5132906;27;20645;-60
2022/10/06 08:14:13;;;;;;;7.10;4.78;;;;;;;19.70;44.56;100589.81;5132657;27;20230;-54
2022/10/06 08:16:41;;;;;;;6.20;5.25;;;;;;;19.83;44.87;100596.19;5132750;27;20190;-53
2022/10/06 08:19:07;;;;;;;8.02;5.15;;;;;;;19.76;44.60;100594.75;5132536;27;20208;-54
2022/10/06 08:21:34;;;;;;;4.13;3.58;;;;;;;19.65;44.74;100594.44;5132460;27;20605;-54
2022/10/06 08:24:02;;;;;;;6.13;4.05;;;;;;;19.44;45.42;100594.53;5133226;27;20219;-53
2022/10/06 08:26:29;;;;;;;7.45;4.47;;;;;;;19.60;45.23;100586.78;5132280;27;20581;-54
2022/10/06 08:29:01;;;;;;;8.93;5.18;;;;;;;19.55;45.54;100594.03;5131384;27;20233;-53
2022/10/06 08:31:30;;;;;;;7.82;4.95;;;;;;;19.56;45.44;100591.31;5131689;27;20285;-54
2022/10/06 08:33:58;;;;;;;5.72;4.05;;;;;;;19.58;45.11;100586.84;5132104;27;20204;-54
2022/10/06 08:36:26;;;;;;;6.43;3.63;;;;;;;19.65;45.11;100594.44;5132006;27;20570;-54
2022/10/06 08:38:53;;;;;;;6.45;4.38;;;;;;;19.46;45.53;100595.31;5132106;27;20591;-53
2022/10/06 08:41:24;;;;;;;6.18;3.85;;;;;;;19.54;45.24;100587.91;5131932;27;20231;-53
2022/10/06 08:43:58;;;;;;;7.68;4.13;;;;;;;19.55;45.12;100586.13;5132166;27;20587;-60
2022/10/06 08:46:32;;;;;;;5.70;3.33;;;;;;;19.58;45.29;100593.88;5131865;27;20726;-54
2022/10/06 08:49:00;;;;;;;7.88;3.95;;;;;;;19.33;45.94;100593.31;5132114;27;20697;-60
2022/10/06 08:51:44;;;;;;;4.50;3.05;;;;;;;19.17;45.09;100583.53;5131874;27;20190;-54
2022/10/06 08:54:15;;;;;;;6.13;2.83;;;;;;;19.30;45.13;100583.78;5132096;27;20288;-54
2022/10/06 08:56:53;;;;;;;7.20;3.78;;;;;;;19.47;45.12;100585.63;5131542;27;20212;-54
2022/10/06 08:59:20;;;;;;;3.63;3.40;;;;;;;19.37;45.07;100585.22;5131239;27;20574;-54
2022/10/06 09:01:53;;;;;;;7.55;3.50;;;;;;;19.46;45.04;100573.38;5131238;27;20221;-54
2022/10/06 09:04:27;;;;;;;6.18;3.47;;;;;;;19.66;44.71;100580.34;5131417;27;20285;-54
2022/10/06 09:07:02;;;;;;;7.05;3.05;;;;;;;19.57;44.72;100576.38;5131649;27;20665;-54
2022/10/06 09:09:50;;;;;;;5.13;4.15;;;;;;;19.47;45.42;100572.47;5131289;27;20213;-53
2022/10/06 09:12:26;;;;;;;4.57;3.80;;;;;;;19.32;45.91;100568.78;5131245;27;20198;-60
2022/10/06 09:14:56;;;;;;;5.75;3.33;;;;;;;19.32;45.77;100568.78;5131469;27;20234;-59
2022/10/06 09:17:30;;;;;;;3.35;2.90;;;;;;;19.37;45.83;100571.19;5131027;27;20250;-60
2022/10/06 09:20:03;;;;;;;7.32;3.97;;;;;;;19.34;45.49;100555.53;5131307;27;20212;-60
2022/10/06 09:22:32;;;;;;;3.78;3.30;;;;;;;19.40;45.92;100564.00;5131081;27;20206;-60
2022/10/06 09:25:11;;;;;;;3.90;3.60;;;;;;;19.44;45.64;100533.94;5131230;27;20194;-60
2022/10/06 09:27:41;;;;;;;8.38;3.60;;;;;;;19.62;45.79;100553.31;5131156;27;20189;-60
2022/10/06 09:30:12;;;;;;;4.78;3.67;;;;;;;19.76;45.52;100552.59;5130232;27;20313;-61
2022/10/06 09:32:46;;;;;;;3.45;3.25;;;;;;;19.97;44.51;100551.53;5131194;27;20212;-61
2022/10/06 09:35:18;;;;;;;5.20;3.05;;;;;;;19.97;43.91;100548.06;5130737;27;20194;-59
2022/10/06 09:37:56;;;;;;;4.95;3.53;;;;;;;19.97;43.78;100543.63;5130729;27;20233;-60
2022/10/06 09:40:35;;;;;;;2.92;2.40;;;;;;;20.09;43.80;100547.44;5130968;27;20193;-60
2022/10/06 09:43:04;;;;;;;4.82;2.80;;;;;;;20.28;43.33;100548.16;5130797;27;20258;-60
2022/10/06 09:45:41;;;;;;;3.00;2.70;;;;;;;20.29;42.77;100545.47;5131017;27;20715;-61
2022/10/06 09:48:19;;;;;;;3.63;3.08;;;;;;;20.31;43.15;100546.19;5130553;27;20194;-60
2022/10/06 09:51:07;;;;;;;6.35;2.58;;;;;;;20.41;43.07;100544.00;5130802;27;20281;-59
2022/10/06 09:53:34;;;;;;;3.40;2.92;;;;;;;20.26;43.22;100536.84;5130562;27;20213;-60
2022/10/06 09:56:03;;;;;;;4.80;3.08;;;;;;;20.33;42.97;100534.72;5130533;27;20697;-60
2022/10/06 09:58:33;;;;;;;6.00;3.60;;;;;;;20.41;43.03;100529.94;5130597;27;20215;-61
2022/10/06 10:01:03;;;;;;;6.07;3.55;;;;;;;20.52;43.32;100531.09;5130586;27;20209;-61
2022/10/06 10:03:50;;;;;;;3.63;3.03;;;;;;;20.48;42.59;100529.53;5130344;27;20251;-60
2022/10/06 10:06:26;;;;;;;4.10;2.63;;;;;;;20.51;42.34;100525.88;5130399;27;20196;-60
2022/10/06 10:09:13;;;;;;;5.75;2.83;;;;;;;20.28;42.29;100524.44;5130362;27;20717;-61
2022/10/06 10:14:24;;;;;;;6.18;2.28;;;;;;;20.21;42.35;100508.06;5130057;27;20196;-60
2022/10/06 10:16:51;;;;;;;3.28;2.78;;;;;;;20.37;42.36;100516.06;5129967;27;20194;-60
2022/10/06 10:19:26;;;;;;;2.70;2.50;;;;;;;20.48;42.20;100508.44;5130225;27;20681;-59
2022/10/06 10:21:56;;;;;;;4.55;2.60;;;;;;;20.51;42.26;100504.78;5130368;27;20197;-60
2022/10/06 10:24:41;;;;;;;3.50;2.53;;;;;;;20.45;42.16;100495.41;5129989;27;20193;-59
2022/10/06 10:27:14;;;;;;;3.33;2.33;;;;;;;20.55;42.27;100490.47;5130195;27;20201;-59
2022/10/06 10:30:00;;;;;;;3.33;2.38;;;;;;;20.49;42.17;100481.13;5130473;28;20244;-55
2022/10/06 10:32:43;;;;;;;3.13;2.80;;;;;;;20.58;41.95;100479.78;5130096;28;20194;-54
2022/10/06 10:35:20;;;;;;;5.20;4.10;;;;;;;20.67;42.27;100476.63;5129379;28;20200;-59
2022/10/06 10:37:50;;;;;;;9.80;7.18;;;;;;;20.85;42.91;100472.13;5130290;28;20200;-59
2022/10/06 10:40:27;;;;;;;5.07;4.57;;;;;;;21.08;42.11;100469.03;5130667;27;20190;-59
2022/10/06 10:43:02;;;;;;;5.00;4.55;;;;;;;21.20;41.26;100473.66;5134252;27;20194;-59
2022/10/06 10:45:33;;;;;;;5.15;4.82;;;;;;;21.21;41.14;100461.31;5134049;27;20633;-59
2022/10/06 10:48:01;;;;;;;3.25;3.05;;;;;;;21.29;41.14;100464.34;5134006;27;20267;-60
2022/10/06 10:50:33;;;;;;;3.42;3.13;;;;;;;21.27;40.86;100453.00;5133965;27;20225;-60
2022/10/06 10:53:07;;;;;;;3.05;2.80;;;;;;;21.33;40.79;100452.69;5134317;27;20198;-60
2022/10/06 10:55:40;;;;;;;5.88;2.72;;;;;;;21.41;40.79;100458.34;5134199;27;20194;-59
2022/10/06 10:58:16;;;;;;;6.70;2.88;;;;;;;21.49;41.01;100456.09;5134326;27;20208;-60
2022/10/06 11:00:48;;;;;;;3.00;2.78;;;;;;;21.42;40.75;100452.13;5134263;27;20189;-60
2022/10/06 11:03:15;;;;;;;2.50;2.30;;;;;;;21.44;40.37;100450.25;5131526;27;20233;-54
2022/10/06 11:05:59;;;;;;;5.40;3.00;;;;;;;21.37;40.70;100440.97;5132084;27;20296;-53
2022/10/06 11:08:34;;;;;;;4.22;2.92;;;;;;;21.25;40.79;100425.84;5129939;27;20201;-54
2022/10/06 11:11:04;;;;;;;4.80;3.20;;;;;;;21.25;41.05;100429.34;5132602;27;20194;-55
2022/10/06 11:13:39;;;;;;;6.20;3.05;;;;;;;21.27;40.17;100423.97;5130525;27;20252;-55
2022/10/06 11:16:18;;;;;;;8.13;3.00;;;;;;;21.15;39.80;100428.13;5132944;27;20288;-55
2022/10/06 11:19:06;;;;;;;2.45;2.25;;;;;;;20.95;40.13;100423.16;5131835;27;20200;-55
2022/10/06 11:21:39;;;;;;;4.07;2.20;;;;;;;20.96;40.12;100417.78;5129031;27;20197;-53
2022/10/06 11:24:15;;;;;;;7.72;3.05;;;;;;;21.05;40.36;100415.56;5131337;27;20206;-52
2022/10/06 11:26:53;;;;;;;8.13;2.50;;;;;;;20.90;40.47;100399.66;5131435;27;20199;-54
2022/10/06 11:29:31;;;;;;;8.43;2.60;;;;;;;21.09;40.27;100409.16;5131097;27;20228;-54
2022/10/06 11:32:07;;;;;;;4.38;2.60;;;;;;;21.13;40.16;100405.41;5130332;27;20190;-55
2022/10/06 11:34:34;;;;;;;12.48;3.25;;;;;;;21.22;40.01;100404.91;5129904;27;20198;-55
2022/10/06 11:37:08;;;;;;;5.78;3.55;;;;;;;21.23;39.97;100406.59;5131899;27;20198;-54
2022/10/06 11:39:47;;;;;;;2.85;2.65;;;;;;;21.27;39.65;100402.84;5130158;27;20204;-53
2022/10/06 11:42:24;;;;;;;11.82;3.08;;;;;;;21.27;39.67;100392.28;5129962;27;20185;-55
2022/10/06 11:44:57;;;;;;;2.60;2.38;;;;;;;21.30;39.43;100394.75;5129726;27;20194;-54
2022/10/06 11:47:30;;;;;;;7.50;3.13;;;;;;;21.27;39.29;100382.56;5131312;27;20193;-54
2022/10/06 11:49:57;;;;;;;5.00;2.25;;;;;;;21.32;39.29;100390.22;5131337;27;20226;-53